sensor_id;sensor_type;location;lat;lon;timestamp;P1;durP1;ratioP1;P2;durP2;ratioP2
50531;SDS011;36483;37.396;-122.212;2023-04-06T00:00:08;1.98;;;0.85;;
50531;SDS011;36483;37.396;-122.212;2023-04-06T00:02:35;2.38;;;0.88;;
50531;SDS011;36483;37.396;-122.212;2023-04-06T00:05:02;4.35;;;0.88;;
50531;SDS011;36483;37.396;-122.212;2023-04-06T00:07:28;1.33;;;0.70;;
50531;SDS011;36483;37.396;-122.212;2023-04-06T00:09:55;4.03;;;1.10;;
50531;SDS011;36483;37.396;-122.212;2023-04-06T00:12:21;4.07;;;1.10;;
50531;SDS011;36483;37.396;-122.212;2023-04-06T00:14:47;4.38;;;0.90;;
50531;SDS011;36483;37.396;-122.212;2023-04-06T00:17:13;6.28;;;0.93;;
50531;SDS011;36483;37.396;-122.212;2023-04-06T00:19:39;2.75;;;0.82;;
50531;SDS011;36483;37.396;-122.212;2023-04-06T00:22:05;2.35;;;0.88;;
50531;SDS011;36483;37.396;-122.212;2023-04-06T00:24:32;2.58;;;0.85;;
50531;SDS011;36483;37.396;-122.212;2023-04-06T00:26:58;2.45;;;0.80;;
50531;SDS011;36483;37.396;-122.212;2023-04-06T00:29:25;1.85;;;0.90;;
50531;SDS011;36483;37.396;-122.212;2023-04-06T00:31:51;1.83;;;0.80;;
50531;SDS011;36483;37.396;-122.212;2023-04-06T00:34:17;3.95;;;1.00;;
50531;SDS011;36483;37.396;-122.212;2023-04-06T00:36:43;5.05;;;0.90;;
50531;SDS011;36483;37.396;-122.212;2023-04-06T00:39:09;3.33;;;0.70;;
50531;SDS011;36483;37.396;-122.212;2023-04-06T00:41:35;2.08;;;0.68;;
50531;SDS011;36483;37.396;-122.212;2023-04-06T00:44:02;1.60;;;0.70;;
50531;SDS011;36483;37.396;-122.212;2023-04-06T00:46:28;3.28;;;1.10;;
50531;SDS011;36483;37.396;-122.212;2023-04-06T00:48:54;2.20;;;0.65;;
50531;SDS011;36483;37.396;-122.212;2023-04-06T00:51:20;3.20;;;0.80;;
50531;SDS011;36483;37.396;-122.212;2023-04-06T00:53:46;1.92;;;0.70;;
50531;SDS011;36483;37.396;-122.212;2023-04-06T00:56:12;1.85;;;0.85;;
50531;SDS011;36483;37.396;-122.212;2023-04-06T00:58:38;3.38;;;0.90;;
50531;SDS011;36483;37.396;-122.212;2023-04-06T01:01:05;1.27;;;0.68;;
50531;SDS011;36483;37.396;-122.212;2023-04-06T01:03:32;3.47;;;0.70;;
50531;SDS011;36483;37.396;-122.212;2023-04-06T01:05:58;2.67;;;0.80;;
50531;SDS011;36483;37.396;-122.212;2023-04-06T01:08:24;2.67;;;0.70;;
50531;SDS011;36483;37.396;-122.212;2023-04-06T01:10:50;2.13;;;0.90;;
50531;SDS011;36483;37.396;-122.212;2023-04-06T01:13:17;2.45;;;0.60;;
50531;SDS011;36483;37.396;-122.212;2023-04-06T01:15:43;1.95;;;0.70;;
50531;SDS011;36483;37.396;-122.212;2023-04-06T01:18:09;1.75;;;0.60;;
50531;SDS011;36483;37.396;-122.212;2023-04-06T01:20:38;2.40;;;0.80;;
50531;SDS011;36483;37.396;-122.212;2023-04-06T01:23:04;1.85;;;0.93;;
50531;SDS011;36483;37.396;-122.212;2023-04-06T01:25:30;2.33;;;0.73;;
50531;SDS011;36483;37.396;-122.212;2023-04-06T01:27:56;3.60;;;1.02;;
50531;SDS011;36483;37.396;-122.212;2023-04-06T01:30:22;5.00;;;0.90;;
50531;SDS011;36483;37.396;-122.212;2023-04-06T01:32:49;2.78;;;0.90;;
50531;SDS011;36483;37.396;-122.212;2023-04-06T01:35:15;2.40;;;1.00;;
50531;SDS011;36483;37.396;-122.212;2023-04-06T01:37:41;2.63;;;1.00;;
50531;SDS011;36483;37.396;-122.212;2023-04-06T01:40:07;4.75;;;0.85;;
50531;SDS011;36483;37.396;-122.212;2023-04-06T01:42:34;4.03;;;0.88;;
50531;SDS011;36483;37.396;-122.212;2023-04-06T01:45:00;3.70;;;0.90;;
50531;SDS011;36483;37.396;-122.212;2023-04-06T01:47:26;1.95;;;0.80;;
50531;SDS011;36483;37.396;-122.212;2023-04-06T01:49:52;3.50;;;1.10;;
50531;SDS011;36483;37.396;-122.212;2023-04-06T01:52:18;4.32;;;1.08;;
50531;SDS011;36483;37.396;-122.212;2023-04-06T01:54:46;3.65;;;1.25;;
50531;SDS011;36483;37.396;-122.212;2023-04-06T01:57:12;2.53;;;0.95;;
50531;SDS011;36483;37.396;-122.212;2023-04-06T01:59:38;4.95;;;1.05;;
50531;SDS011;36483;37.396;-122.212;2023-04-06T02:02:04;3.17;;;1.13;;
50531;SDS011;36483;37.396;-122.212;2023-04-06T02:04:30;6.05;;;1.38;;
50531;SDS011;36483;37.396;-122.212;2023-04-06T02:06:56;3.00;;;1.10;;
50531;SDS011;36483;37.396;-122.212;2023-04-06T02:09:23;6.10;;;1.00;;
50531;SDS011;36483;37.396;-122.212;2023-04-06T02:11:49;3.58;;;1.08;;
50531;SDS011;36483;37.396;-122.212;2023-04-06T02:14:15;3.42;;;0.90;;
50531;SDS011;36483;37.396;-122.212;2023-04-06T02:16:41;3.08;;;1.10;;
50531;SDS011;36483;37.396;-122.212;2023-04-06T02:19:07;3.15;;;0.95;;
50531;SDS011;36483;37.396;-122.212;2023-04-06T02:21:33;3.50;;;1.10;;
50531;SDS011;36483;37.396;-122.212;2023-04-06T02:23:59;2.95;;;1.00;;
50531;SDS011;36483;37.396;-122.212;2023-04-06T02:26:26;2.85;;;0.95;;
50531;SDS011;36483;37.396;-122.212;2023-04-06T02:28:53;6.47;;;1.02;;
50531;SDS011;36483;37.396;-122.212;2023-04-06T02:31:19;3.80;;;1.10;;
50531;SDS011;36483;37.396;-122.212;2023-04-06T02:33:45;4.68;;;1.08;;
50531;SDS011;36483;37.396;-122.212;2023-04-06T02:36:12;2.28;;;1.00;;
50531;SDS011;36483;37.396;-122.212;2023-04-06T02:38:38;2.33;;;0.98;;
50531;SDS011;36483;37.396;-122.212;2023-04-06T02:41:04;5.35;;;1.52;;
50531;SDS011;36483;37.396;-122.212;2023-04-06T02:43:30;5.05;;;1.00;;
50531;SDS011;36483;37.396;-122.212;2023-04-06T02:45:58;3.03;;;0.80;;
50531;SDS011;36483;37.396;-122.212;2023-04-06T02:48:24;5.72;;;1.13;;
50531;SDS011;36483;37.396;-122.212;2023-04-06T02:50:50;2.47;;;0.90;;
50531;SDS011;36483;37.396;-122.212;2023-04-06T02:53:16;5.80;;;1.30;;
50531;SDS011;36483;37.396;-122.212;2023-04-06T02:55:42;3.80;;;1.00;;
50531;SDS011;36483;37.396;-122.212;2023-04-06T02:58:09;4.03;;;1.30;;
50531;SDS011;36483;37.396;-122.212;2023-04-06T03:00:35;5.53;;;1.25;;
50531;SDS011;36483;37.396;-122.212;2023-04-06T03:03:01;4.55;;;1.20;;
50531;SDS011;36483;37.396;-122.212;2023-04-06T03:05:27;5.53;;;1.08;;
50531;SDS011;36483;37.396;-122.212;2023-04-06T03:07:53;4.43;;;1.00;;
50531;SDS011;36483;37.396;-122.212;2023-04-06T03:10:19;3.30;;;1.00;;
50531;SDS011;36483;37.396;-122.212;2023-04-06T03:12:45;4.72;;;1.02;;
50531;SDS011;36483;37.396;-122.212;2023-04-06T03:15:12;3.83;;;1.20;;
50531;SDS011;36483;37.396;-122.212;2023-04-06T03:17:38;2.00;;;0.93;;
50531;SDS011;36483;37.396;-122.212;2023-04-06T03:20:04;4.28;;;1.42;;
50531;SDS011;36483;37.396;-122.212;2023-04-06T03:22:31;3.88;;;1.17;;
50531;SDS011;36483;37.396;-122.212;2023-04-06T03:24:57;1.65;;;0.95;;
50531;SDS011;36483;37.396;-122.212;2023-04-06T03:27:23;1.90;;;0.88;;
50531;SDS011;36483;37.396;-122.212;2023-04-06T03:29:49;5.07;;;1.38;;
50531;SDS011;36483;37.396;-122.212;2023-04-06T03:32:16;3.25;;;1.10;;
50531;SDS011;36483;37.396;-122.212;2023-04-06T03:34:42;8.13;;;1.40;;
50531;SDS011;36483;37.396;-122.212;2023-04-06T03:37:08;6.32;;;1.40;;
50531;SDS011;36483;37.396;-122.212;2023-04-06T03:39:35;5.20;;;1.08;;
50531;SDS011;36483;37.396;-122.212;2023-04-06T03:42:01;2.60;;;1.00;;
50531;SDS011;36483;37.396;-122.212;2023-04-06T03:44:27;2.60;;;0.88;;
50531;SDS011;36483;37.396;-122.212;2023-04-06T03:46:53;2.40;;;1.10;;
50531;SDS011;36483;37.396;-122.212;2023-04-06T03:49:20;3.55;;;1.10;;
50531;SDS011;36483;37.396;-122.212;2023-04-06T03:51:46;2.28;;;0.90;;
50531;SDS011;36483;37.396;-122.212;2023-04-06T03:54:12;2.65;;;1.02;;
50531;SDS011;36483;37.396;-122.212;2023-04-06T03:56:38;2.72;;;1.10;;
50531;SDS011;36483;37.396;-122.212;2023-04-06T03:59:04;4.90;;;1.40;;
50531;SDS011;36483;37.396;-122.212;2023-04-06T04:01:30;2.65;;;1.05;;
50531;SDS011;36483;37.396;-122.212;2023-04-06T04:03:57;4.15;;;1.20;;
50531;SDS011;36483;37.396;-122.212;2023-04-06T04:06:23;3.33;;;0.98;;
50531;SDS011;36483;37.396;-122.212;2023-04-06T04:08:50;4.13;;;1.10;;
50531;SDS011;36483;37.396;-122.212;2023-04-06T04:11:16;2.97;;;1.10;;
50531;SDS011;36483;37.396;-122.212;2023-04-06T04:13:43;2.40;;;1.00;;
50531;SDS011;36483;37.396;-122.212;2023-04-06T04:16:09;2.67;;;1.02;;
50531;SDS011;36483;37.396;-122.212;2023-04-06T04:18:35;3.58;;;1.30;;
50531;SDS011;36483;37.396;-122.212;2023-04-06T04:21:01;3.90;;;1.00;;
50531;SDS011;36483;37.396;-122.212;2023-04-06T04:23:28;3.88;;;1.40;;
50531;SDS011;36483;37.396;-122.212;2023-04-06T04:25:54;3.70;;;1.20;;
50531;SDS011;36483;37.396;-122.212;2023-04-06T04:28:24;4.03;;;1.20;;
50531;SDS011;36483;37.396;-122.212;2023-04-06T04:31:18;2.60;;;1.17;;
50531;SDS011;36483;37.396;-122.212;2023-04-06T04:33:47;2.45;;;1.20;;
50531;SDS011;36483;37.396;-122.212;2023-04-06T04:36:13;4.22;;;1.40;;
50531;SDS011;36483;37.396;-122.212;2023-04-06T04:38:39;4.60;;;1.73;;
50531;SDS011;36483;37.396;-122.212;2023-04-06T04:41:05;3.22;;;1.35;;
50531;SDS011;36483;37.396;-122.212;2023-04-06T04:43:31;3.70;;;1.40;;
50531;SDS011;36483;37.396;-122.212;2023-04-06T04:45:57;1.88;;;1.10;;
50531;SDS011;36483;37.396;-122.212;2023-04-06T04:48:24;2.80;;;1.35;;
50531;SDS011;36483;37.396;-122.212;2023-04-06T04:50:51;2.78;;;1.30;;
50531;SDS011;36483;37.396;-122.212;2023-04-06T04:53:17;3.08;;;1.33;;
50531;SDS011;36483;37.396;-122.212;2023-04-06T04:55:43;2.38;;;1.10;;
50531;SDS011;36483;37.396;-122.212;2023-04-06T04:58:09;4.25;;;1.30;;
50531;SDS011;36483;37.396;-122.212;2023-04-06T05:00:39;2.47;;;1.05;;
50531;SDS011;36483;37.396;-122.212;2023-04-06T05:03:05;4.03;;;1.20;;
50531;SDS011;36483;37.396;-122.212;2023-04-06T05:05:32;4.13;;;1.30;;
50531;SDS011;36483;37.396;-122.212;2023-04-06T05:07:58;3.17;;;1.20;;
50531;SDS011;36483;37.396;-122.212;2023-04-06T05:10:24;3.92;;;1.20;;
50531;SDS011;36483;37.396;-122.212;2023-04-06T05:12:51;2.17;;;1.20;;
50531;SDS011;36483;37.396;-122.212;2023-04-06T05:15:17;3.72;;;1.23;;
50531;SDS011;36483;37.396;-122.212;2023-04-06T05:17:43;2.70;;;1.20;;
50531;SDS011;36483;37.396;-122.212;2023-04-06T05:20:10;2.40;;;1.30;;
50531;SDS011;36483;37.396;-122.212;2023-04-06T05:22:36;2.63;;;1.15;;
50531;SDS011;36483;37.396;-122.212;2023-04-06T05:25:02;3.90;;;1.33;;
50531;SDS011;36483;37.396;-122.212;2023-04-06T05:27:29;3.70;;;1.52;;
50531;SDS011;36483;37.396;-122.212;2023-04-06T05:29:55;3.40;;;1.35;;
50531;SDS011;36483;37.396;-122.212;2023-04-06T05:32:21;3.60;;;1.50;;
50531;SDS011;36483;37.396;-122.212;2023-04-06T05:34:49;2.53;;;1.17;;
50531;SDS011;36483;37.396;-122.212;2023-04-06T05:37:16;4.00;;;1.40;;
50531;SDS011;36483;37.396;-122.212;2023-04-06T05:39:42;3.95;;;1.40;;
50531;SDS011;36483;37.396;-122.212;2023-04-06T05:42:08;2.50;;;1.30;;
50531;SDS011;36483;37.396;-122.212;2023-04-06T05:44:36;4.75;;;1.58;;
50531;SDS011;36483;37.396;-122.212;2023-04-06T05:47:02;3.55;;;1.50;;
50531;SDS011;36483;37.396;-122.212;2023-04-06T05:49:29;2.78;;;1.50;;
50531;SDS011;36483;37.396;-122.212;2023-04-06T05:51:55;3.67;;;1.40;;
50531;SDS011;36483;37.396;-122.212;2023-04-06T05:54:21;5.15;;;1.50;;
50531;SDS011;36483;37.396;-122.212;2023-04-06T05:56:47;3.33;;;1.60;;
50531;SDS011;36483;37.396;-122.212;2023-04-06T05:59:13;4.20;;;1.42;;
50531;SDS011;36483;37.396;-122.212;2023-04-06T06:01:40;4.63;;;1.50;;
50531;SDS011;36483;37.396;-122.212;2023-04-06T06:04:07;2.60;;;1.50;;
50531;SDS011;36483;37.396;-122.212;2023-04-06T06:06:33;4.20;;;1.42;;
50531;SDS011;36483;37.396;-122.212;2023-04-06T06:09:00;2.88;;;1.30;;
50531;SDS011;36483;37.396;-122.212;2023-04-06T06:11:27;4.55;;;1.63;;
50531;SDS011;36483;37.396;-122.212;2023-04-06T06:13:53;3.53;;;1.38;;
50531;SDS011;36483;37.396;-122.212;2023-04-06T06:16:20;2.90;;;1.42;;
50531;SDS011;36483;37.396;-122.212;2023-04-06T06:18:46;4.05;;;1.30;;
50531;SDS011;36483;37.396;-122.212;2023-04-06T06:21:12;4.32;;;1.50;;
50531;SDS011;36483;37.396;-122.212;2023-04-06T06:23:38;3.60;;;1.35;;
50531;SDS011;36483;37.396;-122.212;2023-04-06T06:26:05;3.10;;;1.20;;
50531;SDS011;36483;37.396;-122.212;2023-04-06T06:28:31;3.30;;;1.30;;
50531;SDS011;36483;37.396;-122.212;2023-04-06T06:30:57;3.10;;;1.38;;
50531;SDS011;36483;37.396;-122.212;2023-04-06T06:33:23;2.78;;;1.17;;
50531;SDS011;36483;37.396;-122.212;2023-04-06T06:35:51;3.78;;;1.20;;
50531;SDS011;36483;37.396;-122.212;2023-04-06T06:38:17;3.35;;;1.30;;
50531;SDS011;36483;37.396;-122.212;2023-04-06T06:40:44;3.85;;;1.30;;
50531;SDS011;36483;37.396;-122.212;2023-04-06T06:43:12;3.67;;;1.35;;
50531;SDS011;36483;37.396;-122.212;2023-04-06T06:45:58;4.32;;;1.35;;
50531;SDS011;36483;37.396;-122.212;2023-04-06T06:48:25;2.53;;;1.15;;
50531;SDS011;36483;37.396;-122.212;2023-04-06T06:50:51;3.33;;;1.30;;
50531;SDS011;36483;37.396;-122.212;2023-04-06T06:53:17;3.53;;;1.20;;
50531;SDS011;36483;37.396;-122.212;2023-04-06T06:55:45;3.47;;;1.30;;
50531;SDS011;36483;37.396;-122.212;2023-04-06T06:58:11;3.53;;;1.40;;
50531;SDS011;36483;37.396;-122.212;2023-04-06T07:00:57;2.22;;;1.00;;
50531;SDS011;36483;37.396;-122.212;2023-04-06T07:03:26;3.20;;;1.10;;
50531;SDS011;36483;37.396;-122.212;2023-04-06T07:06:00;2.30;;;1.08;;
50531;SDS011;36483;37.396;-122.212;2023-04-06T07:08:35;3.88;;;1.38;;
50531;SDS011;36483;37.396;-122.212;2023-04-06T07:11:03;2.90;;;1.15;;
50531;SDS011;36483;37.396;-122.212;2023-04-06T07:13:29;3.30;;;1.17;;
50531;SDS011;36483;37.396;-122.212;2023-04-06T07:15:55;2.63;;;1.30;;
50531;SDS011;36483;37.396;-122.212;2023-04-06T07:18:22;2.53;;;1.17;;
50531;SDS011;36483;37.396;-122.212;2023-04-06T07:20:48;2.13;;;1.00;;
50531;SDS011;36483;37.396;-122.212;2023-04-06T07:23:14;5.57;;;1.45;;
50531;SDS011;36483;37.396;-122.212;2023-04-06T07:25:41;3.80;;;1.15;;
50531;SDS011;36483;37.396;-122.212;2023-04-06T07:28:07;3.40;;;1.20;;
50531;SDS011;36483;37.396;-122.212;2023-04-06T07:30:33;2.72;;;1.23;;
50531;SDS011;36483;37.396;-122.212;2023-04-06T07:32:59;2.47;;;1.20;;
50531;SDS011;36483;37.396;-122.212;2023-04-06T07:35:26;2.55;;;1.05;;
50531;SDS011;36483;37.396;-122.212;2023-04-06T07:37:53;3.03;;;1.10;;
50531;SDS011;36483;37.396;-122.212;2023-04-06T07:40:19;1.90;;;1.02;;
50531;SDS011;36483;37.396;-122.212;2023-04-06T07:42:46;1.60;;;1.00;;
50531;SDS011;36483;37.396;-122.212;2023-04-06T07:45:12;3.30;;;1.20;;
50531;SDS011;36483;37.396;-122.212;2023-04-06T07:47:38;1.63;;;0.90;;
50531;SDS011;36483;37.396;-122.212;2023-04-06T07:50:05;2.55;;;1.13;;
50531;SDS011;36483;37.396;-122.212;2023-04-06T07:52:31;3.35;;;1.10;;
50531;SDS011;36483;37.396;-122.212;2023-04-06T07:54:58;2.80;;;1.13;;
50531;SDS011;36483;37.396;-122.212;2023-04-06T07:57:24;3.88;;;1.15;;
50531;SDS011;36483;37.396;-122.212;2023-04-06T07:59:50;3.03;;;1.20;;
50531;SDS011;36483;37.396;-122.212;2023-04-06T08:02:16;4.45;;;1.25;;
50531;SDS011;36483;37.396;-122.212;2023-04-06T08:04:43;3.33;;;1.13;;
50531;SDS011;36483;37.396;-122.212;2023-04-06T08:07:09;3.42;;;1.10;;
50531;SDS011;36483;37.396;-122.212;2023-04-06T08:09:35;4.18;;;1.40;;
50531;SDS011;36483;37.396;-122.212;2023-04-06T08:12:01;4.30;;;1.40;;
50531;SDS011;36483;37.396;-122.212;2023-04-06T08:14:28;2.28;;;1.20;;
50531;SDS011;36483;37.396;-122.212;2023-04-06T08:16:54;4.65;;;1.63;;
50531;SDS011;36483;37.396;-122.212;2023-04-06T08:19:20;4.05;;;1.60;;
50531;SDS011;36483;37.396;-122.212;2023-04-06T08:21:46;3.70;;;1.50;;
50531;SDS011;36483;37.396;-122.212;2023-04-06T08:24:13;2.75;;;1.30;;
50531;SDS011;36483;37.396;-122.212;2023-04-06T08:26:40;3.35;;;1.30;;
50531;SDS011;36483;37.396;-122.212;2023-04-06T08:29:06;2.33;;;1.10;;
50531;SDS011;36483;37.396;-122.212;2023-04-06T08:31:35;3.60;;;1.30;;
50531;SDS011;36483;37.396;-122.212;2023-04-06T08:34:03;4.00;;;1.40;;
50531;SDS011;36483;37.396;-122.212;2023-04-06T08:36:30;3.28;;;1.20;;
50531;SDS011;36483;37.396;-122.212;2023-04-06T08:38:57;3.88;;;1.40;;
50531;SDS011;36483;37.396;-122.212;2023-04-06T08:41:24;2.10;;;1.00;;
50531;SDS011;36483;37.396;-122.212;2023-04-06T08:46:23;2.90;;;1.30;;
50531;SDS011;36483;37.396;-122.212;2023-04-06T08:48:56;1.75;;;1.00;;
50531;SDS011;36483;37.396;-122.212;2023-04-06T08:51:24;3.47;;;1.25;;
50531;SDS011;36483;37.396;-122.212;2023-04-06T08:53:54;2.40;;;1.02;;
50531;SDS011;36483;37.396;-122.212;2023-04-06T08:56:24;1.73;;;1.17;;
50531;SDS011;36483;37.396;-122.212;2023-04-06T08:58:50;2.17;;;1.00;;
50531;SDS011;36483;37.396;-122.212;2023-04-06T09:01:20;3.97;;;1.20;;
50531;SDS011;36483;37.396;-122.212;2023-04-06T09:03:49;2.25;;;0.90;;
50531;SDS011;36483;37.396;-122.212;2023-04-06T09:06:16;2.10;;;1.00;;
50531;SDS011;36483;37.396;-122.212;2023-04-06T09:08:42;3.95;;;1.33;;
50531;SDS011;36483;37.396;-122.212;2023-04-06T09:11:08;3.88;;;1.10;;
50531;SDS011;36483;37.396;-122.212;2023-04-06T09:13:47;3.38;;;1.00;;
50531;SDS011;36483;37.396;-122.212;2023-04-06T09:16:15;2.45;;;1.08;;
50531;SDS011;36483;37.396;-122.212;2023-04-06T09:18:41;3.45;;;1.02;;
50531;SDS011;36483;37.396;-122.212;2023-04-06T09:21:08;4.40;;;1.00;;
50531;SDS011;36483;37.396;-122.212;2023-04-06T09:23:35;1.80;;;0.90;;
50531;SDS011;36483;37.396;-122.212;2023-04-06T09:31:21;3.33;;;1.10;;
50531;SDS011;36483;37.396;-122.212;2023-04-06T09:36:15;2.20;;;1.00;;
50531;SDS011;36483;37.396;-122.212;2023-04-06T09:38:51;2.25;;;1.10;;
50531;SDS011;36483;37.396;-122.212;2023-04-06T09:41:22;4.78;;;1.35;;
50531;SDS011;36483;37.396;-122.212;2023-04-06T09:43:49;3.90;;;1.08;;
50531;SDS011;36483;37.396;-122.212;2023-04-06T09:46:27;2.40;;;0.98;;
50531;SDS011;36483;37.396;-122.212;2023-04-06T09:48:57;3.20;;;1.10;;
50531;SDS011;36483;37.396;-122.212;2023-04-06T09:51:23;3.33;;;1.20;;
50531;SDS011;36483;37.396;-122.212;2023-04-06T09:53:52;3.40;;;1.30;;
50531;SDS011;36483;37.396;-122.212;2023-04-06T09:56:20;3.28;;;1.10;;
50531;SDS011;36483;37.396;-122.212;2023-04-06T09:58:52;1.75;;;1.02;;
50531;SDS011;36483;37.396;-122.212;2023-04-06T10:01:28;1.38;;;1.00;;
50531;SDS011;36483;37.396;-122.212;2023-04-06T10:04:05;2.00;;;1.10;;
50531;SDS011;36483;37.396;-122.212;2023-04-06T10:06:52;4.13;;;1.30;;
50531;SDS011;36483;37.396;-122.212;2023-04-06T10:09:19;2.10;;;1.13;;
50531;SDS011;36483;37.396;-122.212;2023-04-06T10:11:47;4.30;;;1.48;;
50531;SDS011;36483;37.396;-122.212;2023-04-06T10:14:15;2.50;;;1.17;;
50531;SDS011;36483;37.396;-122.212;2023-04-06T10:16:42;3.65;;;1.10;;
50531;SDS011;36483;37.396;-122.212;2023-04-06T10:19:18;2.10;;;1.10;;
50531;SDS011;36483;37.396;-122.212;2023-04-06T10:21:48;2.30;;;1.00;;
50531;SDS011;36483;37.396;-122.212;2023-04-06T10:24:16;2.28;;;0.98;;
50531;SDS011;36483;37.396;-122.212;2023-04-06T10:26:43;4.00;;;1.10;;
50531;SDS011;36483;37.396;-122.212;2023-04-06T10:29:09;2.42;;;1.00;;
50531;SDS011;36483;37.396;-122.212;2023-04-06T10:31:39;2.22;;;0.90;;
50531;SDS011;36483;37.396;-122.212;2023-04-06T10:34:08;4.45;;;1.10;;
50531;SDS011;36483;37.396;-122.212;2023-04-06T10:36:34;3.13;;;1.20;;
50531;SDS011;36483;37.396;-122.212;2023-04-06T10:39:02;2.70;;;1.10;;
50531;SDS011;36483;37.396;-122.212;2023-04-06T10:41:33;3.50;;;1.08;;
50531;SDS011;36483;37.396;-122.212;2023-04-06T10:44:00;1.70;;;0.95;;
50531;SDS011;36483;37.396;-122.212;2023-04-06T10:46:27;3.70;;;1.00;;
50531;SDS011;36483;37.396;-122.212;2023-04-06T10:48:54;4.68;;;1.10;;
50531;SDS011;36483;37.396;-122.212;2023-04-06T10:51:25;2.17;;;1.10;;
50531;SDS011;36483;37.396;-122.212;2023-04-06T10:53:54;3.75;;;1.15;;
50531;SDS011;36483;37.396;-122.212;2023-04-06T10:56:21;3.25;;;1.20;;
50531;SDS011;36483;37.396;-122.212;2023-04-06T10:58:50;4.05;;;1.27;;
50531;SDS011;36483;37.396;-122.212;2023-04-06T11:01:19;1.98;;;1.05;;
50531;SDS011;36483;37.396;-122.212;2023-04-06T11:03:47;2.13;;;1.20;;
50531;SDS011;36483;37.396;-122.212;2023-04-06T11:06:18;3.03;;;1.10;;
50531;SDS011;36483;37.396;-122.212;2023-04-06T11:08:45;3.80;;;1.17;;
50531;SDS011;36483;37.396;-122.212;2023-04-06T11:11:12;3.28;;;1.20;;
50531;SDS011;36483;37.396;-122.212;2023-04-06T11:13:41;2.50;;;1.40;;
50531;SDS011;36483;37.396;-122.212;2023-04-06T11:16:16;4.38;;;1.15;;
50531;SDS011;36483;37.396;-122.212;2023-04-06T11:18:47;3.70;;;1.30;;
50531;SDS011;36483;37.396;-122.212;2023-04-06T11:21:18;2.45;;;1.20;;
50531;SDS011;36483;37.396;-122.212;2023-04-06T11:23:44;2.95;;;1.30;;
50531;SDS011;36483;37.396;-122.212;2023-04-06T11:26:14;3.95;;;1.25;;
50531;SDS011;36483;37.396;-122.212;2023-04-06T11:28:40;3.97;;;1.33;;
50531;SDS011;36483;37.396;-122.212;2023-04-06T11:31:08;1.52;;;1.00;;
50531;SDS011;36483;37.396;-122.212;2023-04-06T11:33:36;3.78;;;1.30;;
50531;SDS011;36483;37.396;-122.212;2023-04-06T11:36:04;2.38;;;1.15;;
50531;SDS011;36483;37.396;-122.212;2023-04-06T11:38:31;5.70;;;1.40;;
50531;SDS011;36483;37.396;-122.212;2023-04-06T11:40:57;4.18;;;1.55;;
50531;SDS011;36483;37.396;-122.212;2023-04-06T11:43:27;1.95;;;1.10;;
50531;SDS011;36483;37.396;-122.212;2023-04-06T11:46:00;3.40;;;1.25;;
50531;SDS011;36483;37.396;-122.212;2023-04-06T11:48:27;4.07;;;1.40;;
50531;SDS011;36483;37.396;-122.212;2023-04-06T11:50:57;3.85;;;1.27;;
50531;SDS011;36483;37.396;-122.212;2023-04-06T11:53:26;2.75;;;1.38;;
50531;SDS011;36483;37.396;-122.212;2023-04-06T11:55:56;2.03;;;1.10;;
50531;SDS011;36483;37.396;-122.212;2023-04-06T11:58:22;2.85;;;1.30;;
50531;SDS011;36483;37.396;-122.212;2023-04-06T12:00:48;2.80;;;1.27;;
50531;SDS011;36483;37.396;-122.212;2023-04-06T12:03:14;2.97;;;1.33;;
50531;SDS011;36483;37.396;-122.212;2023-04-06T12:05:41;2.78;;;1.40;;
50531;SDS011;36483;37.396;-122.212;2023-04-06T12:08:07;2.92;;;1.30;;
50531;SDS011;36483;37.396;-122.212;2023-04-06T12:10:33;4.05;;;1.60;;
50531;SDS011;36483;37.396;-122.212;2023-04-06T12:12:59;4.35;;;1.30;;
50531;SDS011;36483;37.396;-122.212;2023-04-06T12:15:26;3.83;;;1.40;;
50531;SDS011;36483;37.396;-122.212;2023-04-06T12:17:52;1.73;;;1.10;;
50531;SDS011;36483;37.396;-122.212;2023-04-06T12:20:18;3.47;;;1.20;;
50531;SDS011;36483;37.396;-122.212;2023-04-06T12:22:44;5.07;;;1.50;;
50531;SDS011;36483;37.396;-122.212;2023-04-06T12:25:10;2.63;;;1.50;;
50531;SDS011;36483;37.396;-122.212;2023-04-06T12:27:37;3.10;;;1.20;;
50531;SDS011;36483;37.396;-122.212;2023-04-06T12:30:03;5.07;;;1.50;;
50531;SDS011;36483;37.396;-122.212;2023-04-06T12:32:30;3.55;;;1.20;;
50531;SDS011;36483;37.396;-122.212;2023-04-06T12:34:56;1.85;;;1.15;;
50531;SDS011;36483;37.396;-122.212;2023-04-06T12:37:22;2.92;;;1.38;;
50531;SDS011;36483;37.396;-122.212;2023-04-06T12:39:48;2.90;;;1.15;;
50531;SDS011;36483;37.396;-122.212;2023-04-06T12:42:15;4.47;;;1.20;;
50531;SDS011;36483;37.396;-122.212;2023-04-06T12:44:42;3.17;;;1.15;;
50531;SDS011;36483;37.396;-122.212;2023-04-06T12:47:10;2.30;;;1.13;;
50531;SDS011;36483;37.396;-122.212;2023-04-06T12:49:36;3.85;;;1.05;;
50531;SDS011;36483;37.396;-122.212;2023-04-06T12:52:02;3.47;;;1.35;;
50531;SDS011;36483;37.396;-122.212;2023-04-06T12:54:29;2.42;;;1.30;;
50531;SDS011;36483;37.396;-122.212;2023-04-06T12:56:55;3.90;;;1.45;;
50531;SDS011;36483;37.396;-122.212;2023-04-06T12:59:21;2.17;;;1.27;;
50531;SDS011;36483;37.396;-122.212;2023-04-06T13:01:50;3.08;;;1.20;;
50531;SDS011;36483;37.396;-122.212;2023-04-06T13:04:17;2.83;;;1.13;;
50531;SDS011;36483;37.396;-122.212;2023-04-06T13:06:43;5.32;;;1.23;;
50531;SDS011;36483;37.396;-122.212;2023-04-06T13:09:10;3.83;;;1.40;;
50531;SDS011;36483;37.396;-122.212;2023-04-06T13:11:36;4.22;;;1.30;;
50531;SDS011;36483;37.396;-122.212;2023-04-06T13:14:02;4.15;;;1.25;;
50531;SDS011;36483;37.396;-122.212;2023-04-06T13:16:28;2.08;;;1.23;;
50531;SDS011;36483;37.396;-122.212;2023-04-06T13:18:54;3.28;;;1.40;;
50531;SDS011;36483;37.396;-122.212;2023-04-06T13:21:20;2.83;;;1.27;;
50531;SDS011;36483;37.396;-122.212;2023-04-06T13:23:47;2.38;;;1.27;;
50531;SDS011;36483;37.396;-122.212;2023-04-06T13:26:13;4.57;;;1.50;;
50531;SDS011;36483;37.396;-122.212;2023-04-06T13:28:40;3.88;;;1.40;;
50531;SDS011;36483;37.396;-122.212;2023-04-06T13:31:06;3.67;;;1.35;;
50531;SDS011;36483;37.396;-122.212;2023-04-06T13:33:33;2.40;;;1.20;;
50531;SDS011;36483;37.396;-122.212;2023-04-06T13:35:59;3.53;;;1.48;;
50531;SDS011;36483;37.396;-122.212;2023-04-06T13:38:26;2.85;;;1.20;;
50531;SDS011;36483;37.396;-122.212;2023-04-06T13:40:52;2.67;;;1.40;;
50531;SDS011;36483;37.396;-122.212;2023-04-06T13:43:18;2.28;;;1.50;;
50531;SDS011;36483;37.396;-122.212;2023-04-06T13:45:52;1.73;;;1.20;;
50531;SDS011;36483;37.396;-122.212;2023-04-06T13:48:20;4.05;;;1.30;;
50531;SDS011;36483;37.396;-122.212;2023-04-06T13:50:46;3.95;;;1.60;;
50531;SDS011;36483;37.396;-122.212;2023-04-06T13:53:12;2.75;;;1.40;;
50531;SDS011;36483;37.396;-122.212;2023-04-06T13:55:39;4.85;;;1.52;;
50531;SDS011;36483;37.396;-122.212;2023-04-06T13:58:05;2.95;;;1.45;;
50531;SDS011;36483;37.396;-122.212;2023-04-06T14:00:31;3.78;;;1.23;;
50531;SDS011;36483;37.396;-122.212;2023-04-06T14:02:58;2.40;;;1.50;;
50531;SDS011;36483;37.396;-122.212;2023-04-06T14:05:24;3.45;;;1.33;;
50531;SDS011;36483;37.396;-122.212;2023-04-06T14:07:51;5.00;;;1.38;;
50531;SDS011;36483;37.396;-122.212;2023-04-06T14:10:17;3.47;;;1.60;;
50531;SDS011;36483;37.396;-122.212;2023-04-06T14:12:46;3.33;;;1.38;;
50531;SDS011;36483;37.396;-122.212;2023-04-06T14:15:12;4.40;;;1.40;;
50531;SDS011;36483;37.396;-122.212;2023-04-06T14:17:38;5.38;;;1.52;;